sensor_id;sensor_type;location;lat;lon;timestamp;pressure;altitude;pressure_sealevel;temperature;humidity
41690;BME280;27372;42.658;23.256;2023-03-01T00:01:49;94213.56;;;5.74;100.00
41690;BME280;27372;42.658;23.256;2023-03-01T00:04:15;94227.19;;;5.69;100.00
41690;BME280;27372;42.658;23.256;2023-03-01T00:06:42;94216.31;;;5.66;100.00
41690;BME280;27372;42.658;23.256;2023-03-01T00:09:11;94217.56;;;5.70;100.00
41690;BME280;27372;42.658;23.256;2023-03-01T00:11:37;94206.25;;;5.49;100.00
41690;BME280;27372;42.658;23.256;2023-03-01T00:14:03;94197.63;;;5.55;100.00
41690;BME280;27372;42.658;23.256;2023-03-01T00:16:42;94209.66;;;5.56;100.00
41690;BME280;27372;42.658;23.256;2023-03-01T00:19:12;94203.19;;;5.39;100.00
41690;BME280;27372;42.658;23.256;2023-03-01T00:21:38;94207.03;;;5.50;100.00
41690;BME280;27372;42.658;23.256;2023-03-01T00:24:05;94197.34;;;5.37;100.00
41690;BME280;27372;42.658;23.256;2023-03-01T00:26:31;94189.97;;;5.40;100.00
41690;BME280;27372;42.658;23.256;2023-03-01T00:28:57;94185.78;;;5.46;100.00
41690;BME280;27372;42.658;23.256;2023-03-01T00:31:26;94170.53;;;5.36;100.00
41690;BME280;27372;42.658;23.256;2023-03-01T00:33:54;94171.50;;;5.35;100.00
41690;BME280;27372;42.658;23.256;2023-03-01T00:36:26;94176.38;;;5.52;100.00
41690;BME280;27372;42.658;23.256;2023-03-01T00:38:53;94179.56;;;5.47;100.00
41690;BME280;27372;42.658;23.256;2023-03-01T00:41:20;94182.75;;;5.42;100.00
41690;BME280;27372;42.658;23.256;2023-03-01T00:43:47;94178.00;;;5.53;100.00
41690;BME280;27372;42.658;23.256;2023-03-01T00:46:15;94174.38;;;5.47;100.00
41690;BME280;27372;42.658;23.256;2023-03-01T00:48:42;94169.97;;;5.48;100.00
41690;BME280;27372;42.658;23.256;2023-03-01T00:51:19;94169.28;;;5.32;100.00
41690;BME280;27372;42.658;23.256;2023-03-01T00:53:46;94161.28;;;5.27;100.00
41690;BME280;27372;42.658;23.256;2023-03-01T00:56:13;94164.88;;;5.26;100.00
41690;BME280;27372;42.658;23.256;2023-03-01T00:58:39;94163.25;;;5.25;100.00
41690;BME280;27372;42.658;23.256;2023-03-01T01:04:04;94173.75;;;5.38;100.00
41690;BME280;27372;42.658;23.256;2023-03-01T01:06:30;94181.41;;;5.53;99.71
41690;BME280;27372;42.658;23.256;2023-03-01T01:08:56;94180.53;;;5.39;100.00
41690;BME280;27372;42.658;23.256;2023-03-01T01:11:23;94181.38;;;5.47;99.94
41690;BME280;27372;42.658;23.256;2023-03-01T01:13:49;94174.19;;;5.49;99.32
41690;BME280;27372;42.658;23.256;2023-03-01T01:16:17;94168.53;;;5.45;98.62
41690;BME280;27372;42.658;23.256;2023-03-01T01:18:43;94169.59;;;5.57;98.97
41690;BME280;27372;42.658;23.256;2023-03-01T01:21:40;94192.03;;;5.58;98.38
41690;BME280;27372;42.658;23.256;2023-03-01T01:24:13;94179.00;;;5.52;98.22
41690;BME280;27372;42.658;23.256;2023-03-01T01:26:50;94170.56;;;5.50;98.63
41690;BME280;27372;42.658;23.256;2023-03-01T01:29:19;94162.22;;;5.74;97.55
41690;BME280;27372;42.658;23.256;2023-03-01T01:31:48;94158.41;;;5.77;96.86
41690;BME280;27372;42.658;23.256;2023-03-01T01:34:21;94181.28;;;5.82;96.49
41690;BME280;27372;42.658;23.256;2023-03-01T01:36:51;94177.06;;;5.67;95.96
41690;BME280;27372;42.658;23.256;2023-03-01T01:39:22;94185.69;;;5.74;96.23
41690;BME280;27372;42.658;23.256;2023-03-01T01:41:50;94192.69;;;5.67;95.95
41690;BME280;27372;42.658;23.256;2023-03-01T01:44:26;94182.25;;;5.67;96.05
41690;BME280;27372;42.658;23.256;2023-03-01T01:46:58;94208.25;;;5.54;95.99
41690;BME280;27372;42.658;23.256;2023-03-01T01:54:50;94194.72;;;5.72;95.82
41690;BME280;27372;42.658;23.256;2023-03-01T01:57:31;94191.06;;;5.59;95.12
41690;BME280;27372;42.658;23.256;2023-03-01T02:00:09;94179.19;;;5.50;95.01
41690;BME280;27372;42.658;23.256;2023-03-01T02:02:36;94174.56;;;5.46;95.48
41690;BME280;27372;42.658;23.256;2023-03-01T02:05:11;94163.97;;;5.54;95.78
41690;BME280;27372;42.658;23.256;2023-03-01T02:07:40;94163.19;;;5.67;95.20
41690;BME280;27372;42.658;23.256;2023-03-01T02:10:07;94171.16;;;5.52;94.91
41690;BME280;27372;42.658;23.256;2023-03-01T02:12:34;94160.00;;;5.58;94.88
41690;BME280;27372;42.658;23.256;2023-03-01T02:14:59;94143.75;;;5.56;94.73
41690;BME280;27372;42.658;23.256;2023-03-01T02:17:30;94154.94;;;5.50;94.88
41690;BME280;27372;42.658;23.256;2023-03-01T02:20:30;94152.31;;;5.43;95.07
41690;BME280;27372;42.658;23.256;2023-03-01T02:22:56;94148.00;;;5.22;96.45
41690;BME280;27372;42.658;23.256;2023-03-01T02:28:18;94148.19;;;5.13;96.72
41690;BME280;27372;42.658;23.256;2023-03-01T02:30:49;94154.88;;;4.94;96.85
41690;BME280;27372;42.658;23.256;2023-03-01T02:33:35;94163.25;;;4.90;97.43
41690;BME280;27372;42.658;23.256;2023-03-01T02:36:08;94165.16;;;5.03;97.22
41690;BME280;27372;42.658;23.256;2023-03-01T02:38:34;94166.25;;;4.87;97.87
41690;BME280;27372;42.658;23.256;2023-03-01T02:41:02;94169.47;;;4.89;98.23
41690;BME280;27372;42.658;23.256;2023-03-01T02:43:31;94163.78;;;4.78;98.20
41690;BME280;27372;42.658;23.256;2023-03-01T02:46:03;94158.38;;;4.73;98.18
41690;BME280;27372;42.658;23.256;2023-03-01T02:48:42;94153.53;;;4.70;98.45
41690;BME280;27372;42.658;23.256;2023-03-01T02:56:43;94143.47;;;4.60;99.62
41690;BME280;27372;42.658;23.256;2023-03-01T02:59:10;94144.41;;;4.53;100.00
41690;BME280;27372;42.658;23.256;2023-03-01T03:01:36;94151.84;;;4.56;100.00
41690;BME280;27372;42.658;23.256;2023-03-01T03:04:06;94155.91;;;4.65;100.00
41690;BME280;27372;42.658;23.256;2023-03-01T03:06:32;94146.41;;;4.50;100.00
41690;BME280;27372;42.658;23.256;2023-03-01T03:08:59;94142.47;;;4.61;100.00
41690;BME280;27372;42.658;23.256;2023-03-01T03:11:25;94134.38;;;4.49;100.00
41690;BME280;27372;42.658;23.256;2023-03-01T03:13:50;94150.03;;;4.56;100.00
41690;BME280;27372;42.658;23.256;2023-03-01T03:16:17;94144.56;;;4.44;100.00
41690;BME280;27372;42.658;23.256;2023-03-01T03:18:43;94148.00;;;4.51;100.00
41690;BME280;27372;42.658;23.256;2023-03-01T03:21:11;94140.09;;;4.38;100.00
41690;BME280;27372;42.658;23.256;2023-03-01T03:23:37;94142.44;;;4.55;100.00
41690;BME280;27372;42.658;23.256;2023-03-01T03:26:04;94147.25;;;4.58;100.00
41690;BME280;27372;42.658;23.256;2023-03-01T03:28:32;94134.66;;;4.33;100.00
41690;BME280;27372;42.658;23.256;2023-03-01T03:30:57;94153.72;;;4.40;100.00
41690;BME280;27372;42.658;23.256;2023-03-01T03:33:24;94137.63;;;4.30;100.00
41690;BME280;27372;42.658;23.256;2023-03-01T03:35:50;94138.06;;;4.33;100.00
41690;BME280;27372;42.658;23.256;2023-03-01T03:38:17;94158.19;;;4.46;100.00
41690;BME280;27372;42.658;23.256;2023-03-01T03:40:48;94156.56;;;4.45;100.00
41690;BME280;27372;42.658;23.256;2023-03-01T03:43:19;94149.50;;;4.39;100.00
41690;BME280;27372;42.658;23.256;2023-03-01T03:45:47;94147.31;;;4.36;100.00
41690;BME280;27372;42.658;23.256;2023-03-01T03:48:13;94149.13;;;4.42;100.00
41690;BME280;27372;42.658;23.256;2023-03-01T03:50:40;94139.06;;;4.32;100.00
41690;BME280;27372;42.658;23.256;2023-03-01T03:53:08;94135.91;;;4.37;100.00
41690;BME280;27372;42.658;23.256;2023-03-01T03:55:34;94136.91;;;4.36;100.00
41690;BME280;27372;42.658;23.256;2023-03-01T03:58:02;94134.97;;;4.23;100.00
41690;BME280;27372;42.658;23.256;2023-03-01T04:00:39;94133.44;;;4.29;100.00
41690;BME280;27372;42.658;23.256;2023-03-01T04:03:06;94137.28;;;4.33;100.00
41690;BME280;27372;42.658;23.256;2023-03-01T04:05:32;94141.91;;;4.38;100.00
41690;BME280;27372;42.658;23.256;2023-03-01T04:07:57;94142.63;;;4.25;100.00
41690;BME280;27372;42.658;23.256;2023-03-01T04:10:45;94144.31;;;4.39;100.00
41690;BME280;27372;42.658;23.256;2023-03-01T04:13:14;94145.19;;;4.46;100.00
41690;BME280;27372;42.658;23.256;2023-03-01T04:15:40;94143.38;;;4.47;100.00
41690;BME280;27372;42.658;23.256;2023-03-01T04:18:06;94143.47;;;4.32;100.00
41690;BME280;27372;42.658;23.256;2023-03-01T04:20:34;94147.00;;;4.53;100.00
41690;BME280;27372;42.658;23.256;2023-03-01T04:23:08;94152.22;;;4.53;100.00
41690;BME280;27372;42.658;23.256;2023-03-01T04:28:07;94155.19;;;4.49;100.00
41690;BME280;27372;42.658;23.256;2023-03-01T04:30:32;94155.25;;;4.56;100.00
41690;BME280;27372;42.658;23.256;2023-03-01T04:33:06;94159.97;;;4.46;100.00
41690;BME280;27372;42.658;23.256;2023-03-01T04:35:32;94152.00;;;4.47;100.00
41690;BME280;27372;42.658;23.256;2023-03-01T04:38:04;94141.53;;;4.41;100.00
41690;BME280;27372;42.658;23.256;2023-03-01T04:40:39;94138.25;;;4.32;100.00
41690;BME280;27372;42.658;23.256;2023-03-01T04:43:04;94139.06;;;4.32;100.00
41690;BME280;27372;42.658;23.256;2023-03-01T04:45:32;94136.75;;;4.44;100.00
41690;BME280;27372;42.658;23.256;2023-03-01T04:47:59;94135.00;;;4.51;100.00
41690;BME280;27372;42.658;23.256;2023-03-01T04:50:25;94123.44;;;4.32;100.00
41690;BME280;27372;42.658;23.256;2023-03-01T04:52:51;94140.50;;;4.35;100.00
41690;BME280;27372;42.658;23.256;2023-03-01T04:55:16;94133.53;;;4.42;100.00
41690;BME280;27372;42.658;23.256;2023-03-01T04:57:41;94138.41;;;4.52;100.00
41690;BME280;27372;42.658;23.256;2023-03-01T05:00:10;94132.88;;;4.62;100.00
41690;BME280;27372;42.658;23.256;2023-03-01T05:02:53;94135.28;;;4.63;100.00
41690;BME280;27372;42.658;23.256;2023-03-01T05:05:21;94140.19;;;4.51;100.00
41690;BME280;27372;42.658;23.256;2023-03-01T05:07:46;94138.22;;;4.54;100.00
41690;BME280;27372;42.658;23.256;2023-03-01T05:10:12;94143.56;;;4.45;100.00
41690;BME280;27372;42.658;23.256;2023-03-01T05:12:37;94129.78;;;4.51;100.00
41690;BME280;27372;42.658;23.256;2023-03-01T05:15:04;94149.75;;;4.44;100.00
41690;BME280;27372;42.658;23.256;2023-03-01T05:17:33;94140.91;;;4.39;100.00
41690;BME280;27372;42.658;23.256;2023-03-01T05:19:59;94141.34;;;4.42;100.00
41690;BME280;27372;42.658;23.256;2023-03-01T05:22:25;94147.72;;;4.40;100.00
41690;BME280;27372;42.658;23.256;2023-03-01T05:24:50;94149.56;;;4.46;100.00
41690;BME280;27372;42.658;23.256;2023-03-01T05:27:15;94153.81;;;4.54;100.00
41690;BME280;27372;42.658;23.256;2023-03-01T05:29:41;94139.84;;;4.55;100.00
41690;BME280;27372;42.658;23.256;2023-03-01T05:32:06;94147.84;;;4.60;100.00
41690;BME280;27372;42.658;23.256;2023-03-01T05:34:35;94145.88;;;4.62;100.00
41690;BME280;27372;42.658;23.256;2023-03-01T05:37:02;94141.09;;;4.65;100.00
41690;BME280;27372;42.658;23.256;2023-03-01T05:39:29;94131.78;;;4.49;100.00
41690;BME280;27372;42.658;23.256;2023-03-01T05:41:56;94145.50;;;4.65;100.00
41690;BME280;27372;42.658;23.256;2023-03-01T05:44:22;94146.06;;;4.60;100.00
41690;BME280;27372;42.658;23.256;2023-03-01T05:46:48;94144.84;;;4.56;100.00
41690;BME280;27372;42.658;23.256;2023-03-01T05:49:14;94149.13;;;4.42;99.76
41690;BME280;27372;42.658;23.256;2023-03-01T05:51:41;94161.34;;;4.70;99.35
41690;BME280;27372;42.658;23.256;2023-03-01T05:54:07;94165.41;;;4.79;98.95
41690;BME280;27372;42.658;23.256;2023-03-01T05:56:34;94170.75;;;5.00;98.04
41690;BME280;27372;42.658;23.256;2023-03-01T05:59:00;94176.38;;;5.03;97.43
41690;BME280;27372;42.658;23.256;2023-03-01T06:01:25;94174.38;;;5.05;96.77
41690;BME280;27372;42.658;23.256;2023-03-01T06:03:50;94194.38;;;5.05;96.29
41690;BME280;27372;42.658;23.256;2023-03-01T06:06:16;94193.06;;;5.16;96.86
41690;BME280;27372;42.658;23.256;2023-03-01T06:08:42;94190.81;;;5.12;96.31
41690;BME280;27372;42.658;23.256;2023-03-01T06:11:07;94181.28;;;5.26;94.93
41690;BME280;27372;42.658;23.256;2023-03-01T06:13:32;94189.75;;;5.35;94.77
41690;BME280;27372;42.658;23.256;2023-03-01T06:15:58;94192.94;;;5.31;94.12
41690;BME280;27372;42.658;23.256;2023-03-01T06:18:23;94182.72;;;5.29;94.34
41690;BME280;27372;42.658;23.256;2023-03-01T06:20:53;94201.38;;;5.33;94.22
41690;BME280;27372;42.658;23.256;2023-03-01T06:23:19;94200.16;;;5.35;94.51
41690;BME280;27372;42.658;23.256;2023-03-01T06:25:44;94203.84;;;5.48;93.47
41690;BME280;27372;42.658;23.256;2023-03-01T06:28:09;94207.72;;;5.23;94.03
41690;BME280;27372;42.658;23.256;2023-03-01T06:30:35;94199.22;;;5.43;93.34
41690;BME280;27372;42.658;23.256;2023-03-01T06:33:00;94205.19;;;5.37;93.18
41690;BME280;27372;42.658;23.256;2023-03-01T06:35:29;94208.44;;;5.46;93.52
41690;BME280;27372;42.658;23.256;2023-03-01T06:37:55;94198.34;;;5.29;94.47
41690;BME280;27372;42.658;23.256;2023-03-01T06:40:21;94199.78;;;5.38;93.40
41690;BME280;27372;42.658;23.256;2023-03-01T06:42:48;94197.19;;;5.45;92.85
41690;BME280;27372;42.658;23.256;2023-03-01T06:45:17;94195.81;;;5.49;92.69
41690;BME280;27372;42.658;23.256;2023-03-01T06:47:43;94195.22;;;5.54;92.47
41690;BME280;27372;42.658;23.256;2023-03-01T06:50:09;94210.66;;;5.55;93.37
41690;BME280;27372;42.658;23.256;2023-03-01T06:52:34;94210.69;;;5.62;93.07
41690;BME280;27372;42.658;23.256;2023-03-01T06:55:01;94206.09;;;5.64;92.39
41690;BME280;27372;42.658;23.256;2023-03-01T06:57:27;94211.31;;;5.64;92.60
41690;BME280;27372;42.658;23.256;2023-03-01T06:59:52;94206.16;;;5.78;92.27
41690;BME280;27372;42.658;23.256;2023-03-01T07:02:18;94206.34;;;5.83;91.97
41690;BME280;27372;42.658;23.256;2023-03-01T07:04:44;94195.94;;;5.83;91.76
41690;BME280;27372;42.658;23.256;2023-03-01T07:07:10;94200.97;;;5.84;92.14
41690;BME280;27372;42.658;23.256;2023-03-01T07:09:35;94199.81;;;6.00;90.36
41690;BME280;27372;42.658;23.256;2023-03-01T07:12:01;94204.25;;;6.00;89.80
41690;BME280;27372;42.658;23.256;2023-03-01T07:14:26;94204.41;;;5.98;89.11
41690;BME280;27372;42.658;23.256;2023-03-01T07:16:54;94195.63;;;5.99;89.09
41690;BME280;27372;42.658;23.256;2023-03-01T07:19:21;94215.72;;;6.19;89.04
41690;BME280;27372;42.658;23.256;2023-03-01T07:21:46;94208.09;;;6.24;88.67
41690;BME280;27372;42.658;23.256;2023-03-01T07:24:12;94195.63;;;6.13;88.28
41690;BME280;27372;42.658;23.256;2023-03-01T07:26:37;94194.59;;;6.00;89.05
41690;BME280;27372;42.658;23.256;2023-03-01T07:29:04;94204.44;;;6.12;88.06
41690;BME280;27372;42.658;23.256;2023-03-01T07:31:30;94194.44;;;6.29;88.22
41690;BME280;27372;42.658;23.256;2023-03-01T07:33:56;94202.09;;;6.30;87.96
41690;BME280;27372;42.658;23.256;2023-03-01T07:36:22;94202.50;;;6.34;87.44
41690;BME280;27372;42.658;23.256;2023-03-01T07:38:48;94200.09;;;6.46;87.08
41690;BME280;27372;42.658;23.256;2023-03-01T07:41:14;94195.47;;;6.41;85.95
41690;BME280;27372;42.658;23.256;2023-03-01T07:43:39;94204.53;;;6.45;86.12
41690;BME280;27372;42.658;23.256;2023-03-01T07:46:05;94193.47;;;6.43;85.83
41690;BME280;27372;42.658;23.256;2023-03-01T07:48:32;94196.50;;;6.60;85.53
41690;BME280;27372;42.658;23.256;2023-03-01T07:51:01;94198.88;;;6.42;85.54
41690;BME280;27372;42.658;23.256;2023-03-01T07:53:30;94186.44;;;6.44;85.20
41690;BME280;27372;42.658;23.256;2023-03-01T07:58:27;94178.41;;;6.65;84.52
41690;BME280;27372;42.658;23.256;2023-03-01T08:00:53;94188.84;;;6.65;84.62
41690;BME280;27372;42.658;23.256;2023-03-01T08:03:18;94192.69;;;6.63;83.96
41690;BME280;27372;42.658;23.256;2023-03-01T08:05:43;94191.66;;;6.84;83.82
41690;BME280;27372;42.658;23.256;2023-03-01T08:08:09;94191.25;;;6.80;83.59
41690;BME280;27372;42.658;23.256;2023-03-01T08:10:36;94188.03;;;6.85;82.55
41690;BME280;27372;42.658;23.256;2023-03-01T08:13:01;94189.47;;;6.67;84.07
41690;BME280;27372;42.658;23.256;2023-03-01T08:15:26;94187.03;;;6.79;82.73
41690;BME280;27372;42.658;23.256;2023-03-01T08:17:52;94194.06;;;6.79;83.24
41690;BME280;27372;42.658;23.256;2023-03-01T08:20:17;94180.03;;;6.60;83.25
41690;BME280;27372;42.658;23.256;2023-03-01T08:22:43;94192.06;;;6.81;87.59
41690;BME280;27372;42.658;23.256;2023-03-01T08:25:08;94185.56;;;7.24;92.42
41690;BME280;27372;42.658;23.256;2023-03-01T08:27:34;94187.78;;;7.20;89.10
41690;BME280;27372;42.658;23.256;2023-03-01T08:30:00;94178.13;;;7.14;84.79
41690;BME280;27372;42.658;23.256;2023-03-01T08:32:25;94175.91;;;7.18;87.73
41690;BME280;27372;42.658;23.256;2023-03-01T08:34:51;94172.63;;;7.49;88.12
41690;BME280;27372;42.658;23.256;2023-03-01T08:37:16;94175.47;;;7.41;85.78
41690;BME280;27372;42.658;23.256;2023-03-01T08:39:41;94185.34;;;7.19;82.13
41690;BME280;27372;42.658;23.256;2023-03-01T08:42:08;94183.25;;;7.54;87.93
41690;BME280;27372;42.658;23.256;2023-03-01T08:44:34;94180.47;;;7.42;82.25
41690;BME280;27372;42.658;23.256;2023-03-01T08:47:00;94193.25;;;7.71;86.67
41690;BME280;27372;42.658;23.256;2023-03-01T08:49:27;94186.81;;;7.67;88.58
41690;BME280;27372;42.658;23.256;2023-03-01T08:51:53;94182.91;;;7.89;90.02
41690;BME280;27372;42.658;23.256;2023-03-01T08:54:20;94200.75;;;7.54;83.56
41690;BME280;27372;42.658;23.256;2023-03-01T08:56:47;94177.19;;;7.60;86.88
41690;BME280;27372;42.658;23.256;2023-03-01T08:59:13;94191.34;;;7.39;81.40
41690;BME280;27372;42.658;23.256;2023-03-01T09:01:39;94191.19;;;7.14;81.91
41690;BME280;27372;42.658;23.256;2023-03-01T09:04:05;94183.84;;;7.56;90.13
41690;BME280;27372;42.658;23.256;2023-03-01T09:06:34;94187.31;;;7.89;88.08
41690;BME280;27372;42.658;23.256;2023-03-01T09:09:00;94176.00;;;8.02;90.26
41690;BME280;27372;42.658;23.256;2023-03-01T09:11:26;94187.00;;;7.72;84.67
41690;BME280;27372;42.658;23.256;2023-03-01T09:13:53;94191.34;;;7.39;82.58
41690;BME280;27372;42.658;23.256;2023-03-01T09:16:20;94181.53;;;7.80;86.61
41690;BME280;27372;42.658;23.256;2023-03-01T09:18:51;94182.06;;;7.96;87.66
41690;BME280;27372;42.658;23.256;2023-03-01T09:21:18;94178.72;;;7.82;83.58
41690;BME280;27372;42.658;23.256;2023-03-01T09:23:45;94181.94;;;8.16;86.22
41690;BME280;27372;42.658;23.256;2023-03-01T09:26:13;94173.41;;;7.50;78.97
41690;BME280;27372;42.658;23.256;2023-03-01T09:28:41;94178.47;;;7.90;81.17
41690;BME280;27372;42.658;23.256;2023-03-01T09:31:07;94176.81;;;7.96;83.42
41690;BME280;27372;42.658;23.256;2023-03-01T09:33:33;94175.44;;;7.48;81.47
41690;BME280;27372;42.658;23.256;2023-03-01T09:36:03;94167.56;;;8.00;84.87
41690;BME280;27372;42.658;23.256;2023-03-01T09:38:29;94168.94;;;8.34;87.84
41690;BME280;27372;42.658;23.256;2023-03-01T09:40:55;94174.91;;;8.42;86.49
41690;BME280;27372;42.658;23.256;2023-03-01T09:45:54;94168.72;;;8.68;88.43
41690;BME280;27372;42.658;23.256;2023-03-01T09:48:23;94169.78;;;8.60;86.77
41690;BME280;27372;42.658;23.256;2023-03-01T09:50:51;94161.06;;;8.66;86.43
41690;BME280;27372;42.658;23.256;2023-03-01T09:53:20;94163.00;;;8.52;81.79
41690;BME280;27372;42.658;23.256;2023-03-01T09:55:48;94160.44;;;8.71;88.29
41690;BME280;27372;42.658;23.256;2023-03-01T10:00:47;94149.09;;;8.52;86.34
41690;BME280;27372;42.658;23.256;2023-03-01T10:03:24;94144.22;;;8.55;82.02
41690;BME280;27372;42.658;23.256;2023-03-01T10:06:19;94147.31;;;9.15;93.07
41690;BME280;27372;42.658;23.256;2023-03-01T10:11:38;94142.66;;;9.36;90.03
41690;BME280;27372;42.658;23.256;2023-03-01T10:14:19;94153.00;;;9.49;91.57
41690;BME280;27372;42.658;23.256;2023-03-01T10:19:36;94140.84;;;9.17;81.85
41690;BME280;27372;42.658;23.256;2023-03-01T10:22:11;94142.06;;;9.33;83.79
41690;BME280;27372;42.658;23.256;2023-03-01T10:24:38;94150.41;;;8.86;82.67
41690;BME280;27372;42.658;23.256;2023-03-01T10:27:23;94130.78;;;8.96;80.71
41690;BME280;27372;42.658;23.256;2023-03-01T10:32:24;94138.72;;;8.89;84.61
41690;BME280;27372;42.658;23.256;2023-03-01T10:34:50;94119.94;;;9.11;84.77
41690;BME280;27372;42.658;23.256;2023-03-01T10:37:17;94133.03;;;9.48;90.34
41690;BME280;27372;42.658;23.256;2023-03-01T10:40:08;94133.41;;;9.33;83.13
41690;BME280;27372;42.658;23.256;2023-03-01T10:42:40;94129.50;;;9.24;81.13
41690;BME280;27372;42.658;23.256;2023-03-01T10:45:36;94140.81;;;8.99;77.69
41690;BME280;27372;42.658;23.256;2023-03-01T10:48:26;94133.22;;;8.72;77.38
41690;BME280;27372;42.658;23.256;2023-03-01T10:58:29;94126.00;;;8.93;79.01
41690;BME280;27372;42.658;23.256;2023-03-01T11:00:58;94134.56;;;9.00;81.34
41690;BME280;27372;42.658;23.256;2023-03-01T11:03:36;94145.94;;;9.12;85.12
41690;BME280;27372;42.658;23.256;2023-03-01T11:08:43;94139.88;;;9.49;87.59
41690;BME280;27372;42.658;23.256;2023-03-01T11:11:20;94135.13;;;9.76;88.74
41690;BME280;27372;42.658;23.256;2023-03-01T11:16:35;94138.06;;;9.50;84.44
41690;BME280;27372;42.658;23.256;2023-03-01T11:22:03;94128.03;;;8.40;76.06
41690;BME280;27372;42.658;23.256;2023-03-01T11:24:52;94134.53;;;8.31;75.24
41690;BME280;27372;42.658;23.256;2023-03-01T11:27:23;94136.25;;;8.18;76.52
41690;BME280;27372;42.658;23.256;2023-03-01T11:30:00;94130.75;;;7.95;77.06
41690;BME280;27372;42.658;23.256;2023-03-01T11:32:32;94121.47;;;7.67;78.23
41690;BME280;27372;42.658;23.256;2023-03-01T11:35:15;94123.72;;;7.56;79.27
41690;BME280;27372;42.658;23.256;2023-03-01T11:40:33;94113.41;;;7.23;80.84
41690;BME280;27372;42.658;23.256;2023-03-01T11:43:35;94111.47;;;6.98;80.67
41690;BME280;27372;42.658;23.256;2023-03-01T11:46:27;94107.03;;;7.12;82.16
41690;BME280;27372;42.658;23.256;2023-03-01T11:51:45;94101.22;;;7.10;81.57
41690;BME280;27372;42.658;23.256;2023-03-01T12:28:05;94071.34;;;7.38;80.97
41690;BME280;27372;42.658;23.256;2023-03-01T12:30:56;94070.75;;;7.74;79.59
41690;BME280;27372;42.658;23.256;2023-03-01T12:33:36;94067.66;;;7.84;79.27
41690;BME280;27372;42.658;23.256;2023-03-01T12:39:36;94062.75;;;8.20;77.22
41690;BME280;27372;42.658;23.256;2023-03-01T12:50:19;94058.75;;;9.24;71.48
41690;BME280;27372;42.658;23.256;2023-03-01T12:52:57;94054.34;;;9.67;70.67
41690;BME280;27372;42.658;23.256;2023-03-01T12:55:28;94052.38;;;10.04;68.44
41690;BME280;27372;42.658;23.256;2023-03-01T12:58:20;94066.84;;;9.95;69.71
41690;BME280;27372;42.658;23.256;2023-03-01T13:01:25;94049.09;;;10.21;68.22
41690;BME280;27372;42.658;23.256;2023-03-01T13:07:13;94059.16;;;9.82;66.91
41690;BME280;27372;42.658;23.256;2023-03-01T13:09:48;94061.84;;;10.05;67.66
41690;BME280;27372;42.658;23.256;2023-03-01T13:17:56;94060.53;;;9.84;68.96
41690;BME280;27372;42.658;23.256;2023-03-01T13:23:33;94060.63;;;9.35;71.35
41690;BME280;27372;42.658;23.256;2023-03-01T13:26:13;94042.66;;;9.20;70.60
41690;BME280;27372;42.658;23.256;2023-03-01T13:28:51;94064.63;;;9.19;72.05
41690;BME280;27372;42.658;23.256;2023-03-01T13:33:53;94060.69;;;8.54;73.54
41690;BME280;27372;42.658;23.256;2023-03-01T13:44:13;94052.28;;;8.20;76.12
41690;BME280;27372;42.658;23.256;2023-03-01T13:46:44;94053.41;;;8.31;76.72
41690;BME280;27372;42.658;23.256;2023-03-01T13:49:14;94056.50;;;8.46;76.01
41690;BME280;27372;42.658;23.256;2023-03-01T13:51:46;94061.34;;;8.49;76.21
41690;BME280;27372;42.658;23.256;2023-03-01T13:54:12;94064.19;;;8.41;76.46
41690;BME280;27372;42.658;23.256;2023-03-01T13:56:39;94059.72;;;8.23;77.07
41690;BME280;27372;42.658;23.256;2023-03-01T13:59:13;94047.31;;;8.37;77.16
41690;BME280;27372;42.658;23.256;2023-03-01T14:01:39;94049.25;;;8.48;75.78
41690;BME280;27372;42.658;23.256;2023-03-01T14:04:24;94049.78;;;8.32;76.71
41690;BME280;27372;42.658;23.256;2023-03-01T14:06:51;94039.94;;;8.08;77.42
41690;BME280;27372;42.658;23.256;2023-03-01T14:20:12;94045.69;;;8.17;76.86
41690;BME280;27372;42.658;23.256;2023-03-01T14:22:40;94037.34;;;8.27;77.19
41690;BME280;27372;42.658;23.256;2023-03-01T14:27:55;94035.25;;;8.11;77.79
41690;BME280;27372;42.658;23.256;2023-03-01T14:30:24;94035.53;;;8.28;77.23
41690;BME280;27372;42.658;23.256;2023-03-01T14:33:00;94035.75;;;8.26;77.05
41690;BME280;27372;42.658;23.256;2023-03-01T14:35:31;94026.03;;;8.33;76.54
41690;BME280;27372;42.658;23.256;2023-03-01T14:37:57;94036.44;;;8.40;76.51
41690;BME280;27372;42.658;23.256;2023-03-01T14:40:26;94032.16;;;8.46;77.00
41690;BME280;27372;42.658;23.256;2023-03-01T14:42:52;94039.47;;;8.37;76.02
41690;BME280;27372;42.658;23.256;2023-03-01T14:45:18;94037.31;;;8.34;76.62
41690;BME280;27372;42.658;23.256;2023-03-01T14:47:45;94031.38;;;8.20;76.53
41690;BME280;27372;42.658;23.256;2023-03-01T14:52:45;94023.38;;;7.89;78.70
41690;BME280;27372;42.658;23.256;2023-03-01T14:55:18;94033.50;;;8.04;78.41
41690;BME280;27372;42.658;23.256;2023-03-01T14:57:47;94027.91;;;7.75;79.29
41690;BME280;27372;42.658;23.256;2023-03-01T15:00:22;94022.97;;;7.60;80.58
41690;BME280;27372;42.658;23.256;2023-03-01T15:02:51;94021.97;;;7.61;80.99
41690;BME280;27372;42.658;23.256;2023-03-01T15:05:51;94017.09;;;7.33;82.14
41690;BME280;27372;42.658;23.256;2023-03-01T15:08:22;94009.00;;;7.03;83.96
41690;BME280;27372;42.658;23.256;2023-03-01T15:10:57;94019.75;;;6.81;84.75
41690;BME280;27372;42.658;23.256;2023-03-01T15:13:26;94011.78;;;6.62;85.53
41690;BME280;27372;42.658;23.256;2023-03-01T15:16:01;94006.78;;;6.61;85.80
41690;BME280;27372;42.658;23.256;2023-03-01T15:18:28;94016.63;;;6.52;86.69
41690;BME280;27372;42.658;23.256;2023-03-01T15:20:55;94031.28;;;6.53;86.61
41690;BME280;27372;42.658;23.256;2023-03-01T15:23:30;94026.63;;;6.62;86.98
41690;BME280;27372;42.658;23.256;2023-03-01T15:25:56;94022.63;;;6.59;87.13
41690;BME280;27372;42.658;23.256;2023-03-01T15:28:34;94011.81;;;6.49;87.14
41690;BME280;27372;42.658;23.256;2023-03-01T15:33:46;94013.84;;;6.47;87.38